Time;durP1;ratioP1;P1;durP2;ratioP2;P2;SDS_P1;SDS_P2;PMS_P1;PMS_P2;Temp;Humidity;BMP_temperature;BMP_pressure;BME280_temperature;BME280_humidity;BME280_pressure;Samples;Min_cycle;Max_cycle;Signal;HPM_P1;HPM_P2
2021/12/20 00:01:41;;;;;;;;;;;1.40;99.90;;;;;;5015843;28;20384;-73
2021/12/20 00:04:07;;;;;;;;;;;1.30;99.90;;;;;;5016118;28;19909;-74
2021/12/20 00:06:33;;;;;;;;;;;1.20;99.90;;;;;;4998322;28;19909;-73
2021/12/20 00:08:58;;;;;;;;;;;1.30;99.90;;;;;;5015995;28;19906;-74
2021/12/20 00:11:24;;;;;;;;;;;1.30;99.90;;;;;;5015899;28;19933;-74
2021/12/20 00:13:49;;;;;;;;;;;1.20;99.90;;;;;;4982009;28;19913;-73
2021/12/20 00:16:15;;;;;;;;;;;1.20;99.90;;;;;;4998266;28;19952;-74
2021/12/20 00:18:42;;;;;;;;;;;1.20;99.90;;;;;;5015737;28;19905;-73
2021/12/20 00:21:08;;;;;;;;;;;1.20;99.90;;;;;;4998132;28;19905;-74
2021/12/20 00:23:33;;;;;;;;;;;1.20;99.90;;;;;;4998097;28;19919;-74
2021/12/20 00:26:02;;;;;;;;;;;1.30;99.90;;;;;;5015548;28;19927;-73
2021/12/20 00:28:28;;;;;;;;;;;1.20;99.90;;;;;;4998094;28;20046;-73
2021/12/20 00:30:54;;;;;;;;;;;1.20;99.90;;;;;;4997918;28;20364;-74
2021/12/20 00:33:19;;;;;;;;;;;1.20;99.90;;;;;;4997823;28;19909;-74
2021/12/20 00:35:46;;;;;;;;;;;1.20;99.90;;;;;;4997919;28;20258;-73
2021/12/20 00:40:56;;;;;;;;;;;1.40;99.90;;;;;;5015343;28;19909;-73
2021/12/20 00:43:22;;;;;;;;;;;1.50;99.90;;;;;;5015343;28;19959;-73
2021/12/20 00:45:47;;;;;;;;;;;1.50;99.90;;;;;;4981393;28;19905;-73
2021/12/20 00:48:13;;;;;;;;;;;1.40;99.90;;;;;;5015226;28;19916;-73
2021/12/20 00:50:40;;;;;;;;;;;1.40;99.90;;;;;;5015140;28;19994;-73
2021/12/20 00:53:06;;;;;;;;;;;1.30;99.90;;;;;;4997458;28;19916;-73
2021/12/20 00:55:32;;;;;;;;;;;1.30;99.90;;;;;;4997587;28;19906;-74
2021/12/20 00:57:58;;;;;;;;;;;1.40;99.90;;;;;;4996501;28;19927;-74
2021/12/20 01:00:25;;;;;;;;;;;1.40;99.90;;;;;;5014830;28;19909;-74
2021/12/20 01:02:51;;;;;;;;;;;1.40;99.90;;;;;;4997421;28;20358;-74
2021/12/20 01:05:18;;;;;;;;;;;1.40;99.90;;;;;;4981070;28;19912;-73
2021/12/20 01:07:43;;;;;;;;;;;1.40;99.90;;;;;;5014761;28;20316;-74
2021/12/20 01:10:09;;;;;;;;;;;1.40;99.90;;;;;;5014842;28;19905;-74
2021/12/20 01:12:44;;;;;;;;;;;1.40;99.90;;;;;;4997198;28;19909;-74
2021/12/20 01:15:11;;;;;;;;;;;1.40;99.90;;;;;;5024104;22;19921;-77
2021/12/20 01:17:36;;;;;;;;;;;1.50;99.90;;;;;;4993539;28;19944;-77
2021/12/20 01:20:03;;;;;;;;;;;1.40;99.90;;;;;;4994922;28;20353;-78
2021/12/20 01:22:29;;;;;;;;;;;1.40;99.90;;;;;;4993625;28;19913;-77
2021/12/20 01:24:54;;;;;;;;;;;1.50;99.90;;;;;;4994796;28;19914;-78
2021/12/20 01:27:20;;;;;;;;;;;1.40;99.90;;;;;;4994252;28;19905;-77
2021/12/20 01:29:45;;;;;;;;;;;1.50;99.90;;;;;;4993518;28;19906;-78
2021/12/20 01:32:11;;;;;;;;;;;1.80;99.90;;;;;;4994997;28;19917;-77
2021/12/20 01:34:37;;;;;;;;;;;1.90;99.90;;;;;;4994924;28;19906;-78
2021/12/20 01:37:02;;;;;;;;;;;1.80;99.90;;;;;;4993195;28;20357;-77
2021/12/20 01:39:28;;;;;;;;;;;1.70;99.90;;;;;;4994614;28;20161;-77
2021/12/20 01:41:54;;;;;;;;;;;1.90;99.90;;;;;;4994484;28;19963;-76
2021/12/20 01:44:21;;;;;;;;;;;1.90;99.90;;;;;;4993201;28;19912;-77
2021/12/20 01:46:47;;;;;;;;;;;1.90;99.90;;;;;;4994263;28;19992;-77
2021/12/20 01:49:15;;;;;;;;;;;1.80;99.90;;;;;;4994419;28;20381;-77
2021/12/20 01:54:40;;;;;;;;;;;1.60;99.90;;;;;;4982241;28;20270;-77
2021/12/20 01:57:06;;;;;;;;;;;1.40;99.90;;;;;;4994194;28;19952;-77
2021/12/20 01:59:32;;;;;;;;;;;1.30;99.90;;;;;;4994120;28;19916;-77
2021/12/20 02:01:57;;;;;;;;;;;1.30;99.90;;;;;;4992660;28;19906;-77
2021/12/20 02:04:23;;;;;;;;;;;1.40;99.90;;;;;;4994092;28;19948;-77
2021/12/20 02:06:50;;;;;;;;;;;1.30;99.90;;;;;;4994052;28;20008;-77
2021/12/20 02:09:17;;;;;;;;;;;1.30;99.90;;;;;;4993847;28;19952;-76
2021/12/20 02:11:44;;;;;;;;;;;1.30;99.90;;;;;;4992550;28;20266;-77
2021/12/20 02:14:10;;;;;;;;;;;1.30;99.90;;;;;;4993892;28;19905;-78
2021/12/20 02:16:36;;;;;;;;;;;1.40;99.90;;;;;;4992320;28;19913;-78
2021/12/20 02:19:06;;;;;;;;;;;1.60;99.90;;;;;;4993766;28;19913;-77
2021/12/20 02:21:32;;;;;;;;;;;1.60;99.90;;;;;;4992424;28;19910;-77
2021/12/20 02:23:57;;;;;;;;;;;1.50;99.90;;;;;;4992533;28;19906;-77
2021/12/20 02:26:24;;;;;;;;;;;1.70;99.90;;;;;;4992340;28;20396;-78
2021/12/20 02:28:52;;;;;;;;;;;1.80;99.90;;;;;;4992500;28;20288;-78
2021/12/20 02:39:20;;;;;;;;;;;1.50;99.90;;;;;;4993262;28;19910;-77
2021/12/20 02:41:45;;;;;;;;;;;1.40;99.90;;;;;;4992131;28;19913;-76
2021/12/20 02:44:17;;;;;;;;;;;1.20;99.90;;;;;;4993336;28;19992;-77
2021/12/20 02:46:50;;;;;;;;;;;1.30;99.90;;;;;;4993258;28;20374;-78
2021/12/20 02:49:20;;;;;;;;;;;1.30;99.90;;;;;;4992130;28;20004;-77
2021/12/20 02:51:46;;;;;;;;;;;1.30;99.90;;;;;;4993103;28;19913;-77
2021/12/20 02:54:13;;;;;;;;;;;1.40;99.90;;;;;;4993363;28;19909;-78
2021/12/20 02:56:39;;;;;;;;;;;1.70;99.90;;;;;;4993070;28;19905;-78
2021/12/20 02:59:06;;;;;;;;;;;1.50;99.90;;;;;;4993177;28;19916;-78
2021/12/20 03:01:32;;;;;;;;;;;1.50;99.90;;;;;;4993120;28;19914;-77
2021/12/20 03:03:58;;;;;;;;;;;1.60;99.90;;;;;;4991907;28;19956;-77
2021/12/20 03:06:27;;;;;;;;;;;1.40;99.90;;;;;;4992857;28;20366;-77
2021/12/20 03:08:55;;;;;;;;;;;1.40;99.90;;;;;;4975704;28;19971;-77
2021/12/20 03:11:22;;;;;;;;;;;1.40;99.90;;;;;;4993442;28;19906;-76
2021/12/20 03:13:52;;;;;;;;;;;1.60;99.90;;;;;;4993063;28;19916;-77
2021/12/20 03:16:18;;;;;;;;;;;1.60;99.90;;;;;;4992742;28;19936;-78
2021/12/20 03:18:43;;;;;;;;;;;1.60;99.90;;;;;;4992893;28;19905;-77
2021/12/20 03:21:09;;;;;;;;;;;1.70;99.90;;;;;;4994329;28;20264;-77
2021/12/20 03:23:35;;;;;;;;;;;1.80;99.90;;;;;;4999507;28;20365;-78
2021/12/20 03:26:00;;;;;;;;;;;1.90;99.90;;;;;;4999242;28;20025;-78
2021/12/20 03:28:26;;;;;;;;;;;2.00;99.90;;;;;;4998194;28;19916;-78
2021/12/20 03:30:52;;;;;;;;;;;2.00;99.90;;;;;;4999342;28;19955;-77
2021/12/20 03:33:17;;;;;;;;;;;2.10;99.90;;;;;;4999226;28;19960;-77
2021/12/20 03:35:43;;;;;;;;;;;2.00;99.90;;;;;;4999233;28;19913;-77
2021/12/20 03:38:09;;;;;;;;;;;1.80;99.90;;;;;;4999327;28;20361;-77
2021/12/20 03:40:35;;;;;;;;;;;1.80;99.90;;;;;;4999212;28;19996;-77
2021/12/20 03:43:00;;;;;;;;;;;1.80;99.90;;;;;;4998060;28;20420;-78
2021/12/20 03:45:26;;;;;;;;;;;1.80;99.90;;;;;;4997904;28;19909;-77
2021/12/20 03:47:52;;;;;;;;;;;1.80;99.90;;;;;;4999181;28;19917;-77
2021/12/20 03:50:17;;;;;;;;;;;1.80;99.90;;;;;;4999238;28;19912;-77
2021/12/20 03:52:43;;;;;;;;;;;1.70;99.90;;;;;;4999050;28;20004;-78
2021/12/20 03:55:10;;;;;;;;;;;1.80;99.90;;;;;;4999109;28;19906;-78
2021/12/20 03:57:35;;;;;;;;;;;1.80;99.90;;;;;;4999016;28;19906;-78
2021/12/20 04:00:03;;;;;;;;;;;1.60;99.90;;;;;;4999010;28;19910;-77
2021/12/20 04:02:36;;;;;;;;;;;1.60;99.90;;;;;;4999119;28;19996;-78
2021/12/20 04:05:02;;;;;;;;;;;1.60;99.90;;;;;;4999183;28;19916;-78
2021/12/20 04:07:27;;;;;;;;;;;1.50;99.90;;;;;;4997809;28;20288;-77
2021/12/20 04:09:53;;;;;;;;;;;1.50;99.90;;;;;;4999034;28;19905;-78
2021/12/20 04:12:19;;;;;;;;;;;1.60;99.90;;;;;;4997502;28;20321;-77
2021/12/20 04:14:44;;;;;;;;;;;1.70;99.90;;;;;;4998849;28;19905;-76
2021/12/20 04:17:10;;;;;;;;;;;1.70;99.90;;;;;;4998836;28;19917;-76
2021/12/20 04:19:35;;;;;;;;;;;1.60;99.90;;;;;;4998947;28;20017;-76
2021/12/20 04:22:01;;;;;;;;;;;1.50;99.90;;;;;;4998854;28;20013;-76
2021/12/20 04:24:27;;;;;;;;;;;1.40;99.90;;;;;;4998943;28;19916;-76
2021/12/20 04:26:52;;;;;;;;;;;1.30;99.90;;;;;;4998754;28;19906;-76
2021/12/20 04:29:19;;;;;;;;;;;1.40;99.90;;;;;;4997771;28;20008;-76
2021/12/20 04:31:45;;;;;;;;;;;1.40;99.90;;;;;;4980999;28;19905;-75
2021/12/20 04:34:11;;;;;;;;;;;1.40;99.90;;;;;;4995830;28;20008;-76
2021/12/20 04:36:36;;;;;;;;;;;1.50;99.90;;;;;;4994278;28;19906;-76
2021/12/20 04:39:04;;;;;;;;;;;1.70;99.90;;;;;;4994271;28;19912;-77
2021/12/20 04:41:30;;;;;;;;;;;1.90;99.90;;;;;;4995474;28;20366;-76
2021/12/20 04:43:55;;;;;;;;;;;1.90;99.90;;;;;;4995609;28;19913;-76
2021/12/20 04:46:21;;;;;;;;;;;2.10;99.90;;;;;;4977881;28;19917;-76
2021/12/20 04:48:46;;;;;;;;;;;2.00;99.90;;;;;;4994329;28;20329;-76
2021/12/20 04:51:12;;;;;;;;;;;1.90;99.90;;;;;;4994158;28;20376;-76
2021/12/20 04:53:38;;;;;;;;;;;2.00;99.90;;;;;;4977883;28;19964;-76
2021/12/20 04:56:03;;;;;;;;;;;2.20;99.90;;;;;;4995099;28;20325;-76
2021/12/20 04:58:29;;;;;;;;;;;2.10;99.90;;;;;;4995324;28;19968;-76
2021/12/20 05:00:55;;;;;;;;;;;2.10;99.90;;;;;;4993950;28;19912;-76
2021/12/20 05:03:20;;;;;;;;;;;2.00;99.90;;;;;;4993973;28;19912;-76
2021/12/20 05:05:46;;;;;;;;;;;2.10;99.90;;;;;;4995158;28;19910;-76
2021/12/20 05:08:13;;;;;;;;;;;2.10;99.90;;;;;;4995119;28;20358;-76
2021/12/20 05:10:40;;;;;;;;;;;1.90;99.90;;;;;;4994980;28;20366;-75
2021/12/20 05:13:07;;;;;;;;;;;1.90;99.90;;;;;;4993742;28;19910;-76
2021/12/20 05:15:33;;;;;;;;;;;1.90;99.90;;;;;;4994755;28;20000;-76
2021/12/20 05:17:59;;;;;;;;;;;1.80;99.90;;;;;;4994983;28;19956;-76
2021/12/20 05:20:26;;;;;;;;;;;1.90;99.90;;;;;;4994896;28;19946;-76
2021/12/20 05:22:54;;;;;;;;;;;2.00;99.90;;;;;;4994853;28;19910;-76
2021/12/20 05:25:20;;;;;;;;;;;2.00;99.90;;;;;;4994793;28;19913;-76
2021/12/20 05:27:45;;;;;;;;;;;2.20;99.90;;;;;;4994807;28;19906;-76
2021/12/20 05:30:12;;;;;;;;;;;2.30;99.90;;;;;;4993423;28;19917;-76
2021/12/20 05:32:38;;;;;;;;;;;2.40;99.90;;;;;;4994610;28;19910;-76
2021/12/20 05:35:05;;;;;;;;;;;2.20;99.90;;;;;;4993556;28;20388;-76
2021/12/20 05:37:31;;;;;;;;;;;2.30;99.90;;;;;;4994278;28;19906;-76
2021/12/20 05:39:56;;;;;;;;;;;2.30;99.90;;;;;;4993299;28;19932;-76
2021/12/20 05:42:22;;;;;;;;;;;2.30;99.90;;;;;;4994589;28;19916;-76
2021/12/20 05:44:50;;;;;;;;;;;2.40;99.90;;;;;;4993023;28;19952;-76
2021/12/20 05:47:17;;;;;;;;;;;2.50;99.90;;;;;;4993014;28;19910;-76
2021/12/20 05:49:42;;;;;;;;;;;2.40;99.90;;;;;;4994230;28;19906;-76
2021/12/20 05:52:08;;;;;;;;;;;2.40;99.90;;;;;;4994219;28;19942;-76
2021/12/20 05:54:33;;;;;;;;;;;2.20;99.90;;;;;;4993042;28;20416;-76
2021/12/20 05:56:59;;;;;;;;;;;2.10;99.90;;;;;;4994101;28;19906;-76
2021/12/20 05:59:25;;;;;;;;;;;2.00;99.90;;;;;;4994144;28;19913;-76
2021/12/20 06:01:50;;;;;;;;;;;2.00;99.90;;;;;;4992824;28;19906;-76
2021/12/20 06:04:16;;;;;;;;;;;2.00;99.90;;;;;;4994201;28;20289;-76
2021/12/20 06:06:42;;;;;;;;;;;2.10;99.90;;;;;;4976566;28;20194;-76
2021/12/20 06:09:07;;;;;;;;;;;2.10;99.90;;;;;;4992843;28;19905;-76
2021/12/20 06:11:33;;;;;;;;;;;2.00;99.90;;;;;;4981117;28;19906;-77
2021/12/20 06:13:59;;;;;;;;;;;2.00;99.90;;;;;;4992159;28;19933;-76
2021/12/20 06:16:25;;;;;;;;;;;1.90;99.90;;;;;;4993520;28;19921;-76
2021/12/20 06:18:51;;;;;;;;;;;2.00;99.90;;;;;;4993510;28;20409;-76
2021/12/20 06:21:18;;;;;;;;;;;2.00;99.90;;;;;;4976199;28;19905;-76
2021/12/20 06:23:43;;;;;;;;;;;2.10;99.90;;;;;;4993451;28;19906;-76
2021/12/20 06:26:09;;;;;;;;;;;2.20;99.90;;;;;;4993496;28;19906;-76
2021/12/20 06:28:35;;;;;;;;;;;2.20;99.90;;;;;;4993419;28;19906;-76
2021/12/20 06:31:01;;;;;;;;;;;2.20;99.90;;;;;;4992257;28;19910;-75
2021/12/20 06:33:26;;;;;;;;;;;2.00;99.90;;;;;;4993290;28;19951;-76
2021/12/20 06:35:53;;;;;;;;;;;2.00;99.90;;;;;;4993319;28;19906;-76
2021/12/20 06:38:20;;;;;;;;;;;1.90;99.90;;;;;;4993311;28;19905;-76
2021/12/20 06:40:47;;;;;;;;;;;2.00;99.90;;;;;;5018082;28;20067;-75
2021/12/20 06:43:13;;;;;;;;;;;2.00;99.90;;;;;;4999782;28;19952;-76
2021/12/20 06:45:38;;;;;;;;;;;2.10;99.90;;;;;;4994599;28;19936;-76
2021/12/20 06:48:04;;;;;;;;;;;2.10;99.90;;;;;;5012556;28;19905;-77
2021/12/20 06:50:30;;;;;;;;;;;2.20;99.90;;;;;;5011411;28;19910;-76
2021/12/20 06:52:55;;;;;;;;;;;2.20;99.90;;;;;;5012320;28;19910;-76
2021/12/20 06:55:21;;;;;;;;;;;2.30;99.90;;;;;;4997354;28;19917;-76
2021/12/20 06:57:47;;;;;;;;;;;2.40;99.90;;;;;;4991592;28;20353;-76
2021/12/20 07:00:13;;;;;;;;;;;2.30;99.90;;;;;;4991579;28;20249;-75
2021/12/20 07:02:38;;;;;;;;;;;2.40;99.90;;;;;;4992772;28;19913;-77
2021/12/20 07:05:04;;;;;;;;;;;2.30;99.90;;;;;;4992985;28;19906;-76
2021/12/20 07:07:30;;;;;;;;;;;2.20;99.90;;;;;;4992694;28;19912;-78
2021/12/20 07:09:57;;;;;;;;;;;2.30;99.90;;;;;;4992964;28;19960;-76
2021/12/20 07:12:23;;;;;;;;;;;2.20;99.90;;;;;;4992635;28;19964;-77
2021/12/20 07:14:50;;;;;;;;;;;2.10;99.90;;;;;;4991397;28;20254;-77
2021/12/20 07:17:17;;;;;;;;;;;2.20;99.90;;;;;;5058820;22;19963;-74
2021/12/20 07:19:43;;;;;;;;;;;2.30;99.90;;;;;;5052165;28;19904;-74
2021/12/20 07:22:08;;;;;;;;;;;2.40;99.90;;;;;;5050372;28;19905;-74
2021/12/20 07:24:34;;;;;;;;;;;2.40;99.90;;;;;;5050627;28;20542;-74
2021/12/20 07:26:59;;;;;;;;;;;2.50;99.90;;;;;;5050712;28;19912;-74
2021/12/20 07:29:25;;;;;;;;;;;2.60;99.90;;;;;;5051932;28;19905;-74
2021/12/20 07:31:51;;;;;;;;;;;2.60;99.90;;;;;;5051850;28;19999;-74
2021/12/20 07:34:16;;;;;;;;;;;2.60;99.90;;;;;;5050319;28;20051;-74
2021/12/20 07:36:42;;;;;;;;;;;2.60;99.90;;;;;;5051631;28;19904;-74
2021/12/20 07:39:08;;;;;;;;;;;2.60;99.90;;;;;;5050635;28;19904;-74
2021/12/20 07:41:33;;;;;;;;;;;2.70;99.90;;;;;;5051835;28;19908;-74
2021/12/20 07:43:59;;;;;;;;;;;2.80;99.90;;;;;;5051788;28;19905;-74
2021/12/20 07:46:25;;;;;;;;;;;2.80;99.90;;;;;;5051688;28;19911;-74
2021/12/20 07:48:51;;;;;;;;;;;2.60;99.90;;;;;;5050575;28;20319;-74
2021/12/20 07:51:17;;;;;;;;;;;2.50;99.90;;;;;;5051821;28;19906;-74
2021/12/20 07:53:43;;;;;;;;;;;2.50;99.90;;;;;;5051550;28;19909;-73
2021/12/20 07:56:08;;;;;;;;;;;2.50;99.90;;;;;;5051544;28;19924;-74
2021/12/20 07:58:34;;;;;;;;;;;2.60;99.90;;;;;;5050462;28;19911;-74
2021/12/20 08:01:01;;;;;;;;;;;2.50;99.90;;;;;;5051633;28;19904;-74
2021/12/20 08:03:28;;;;;;;;;;;2.70;99.90;;;;;;5033720;28;19912;-74
2021/12/20 08:05:53;;;;;;;;;;;2.70;99.90;;;;;;5033394;28;20375;-74
2021/12/20 08:08:19;;;;;;;;;;;2.80;99.90;;;;;;5052832;28;19908;-74
2021/12/20 08:10:45;;;;;;;;;;;3.00;99.90;;;;;;5055422;28;20322;-74
2021/12/20 08:13:12;;;;;;;;;;;2.90;99.90;;;;;;5037532;28;20015;-74
2021/12/20 08:15:38;;;;;;;;;;;3.10;99.90;;;;;;5055079;28;19913;-74
2021/12/20 08:18:04;;;;;;;;;;;2.90;99.90;;;;;;5054035;28;20003;-74
2021/12/20 08:20:30;;;;;;;;;;;2.90;99.90;;;;;;5054064;28;19958;-75
2021/12/20 08:22:56;;;;;;;;;;;3.00;99.90;;;;;;5053854;28;19912;-74
2021/12/20 08:25:21;;;;;;;;;;;3.00;99.90;;;;;;5055171;28;19911;-75
2021/12/20 08:27:48;;;;;;;;;;;3.00;99.90;;;;;;5054977;28;19992;-75
2021/12/20 08:30:14;;;;;;;;;;;3.20;99.90;;;;;;5055016;28;19909;-75
2021/12/20 08:32:40;;;;;;;;;;;3.20;99.90;;;;;;5053442;28;19968;-74
2021/12/20 08:35:07;;;;;;;;;;;3.30;99.90;;;;;;5037022;28;19912;-74
2021/12/20 08:37:32;;;;;;;;;;;3.40;99.90;;;;;;5053462;28;20434;-74
2021/12/20 08:39:58;;;;;;;;;;;3.30;99.90;;;;;;5054587;28;19912;-75
2021/12/20 08:42:24;;;;;;;;;;;3.30;99.90;;;;;;5054624;28;19905;-74
2021/12/20 08:44:50;;;;;;;;;;;3.20;99.90;;;;;;5054621;28;20295;-74
2021/12/20 08:47:16;;;;;;;;;;;3.10;99.90;;;;;;5054407;28;20003;-74
2021/12/20 08:49:42;;;;;;;;;;;3.00;99.90;;;;;;5053299;28;20338;-74
2021/12/20 08:52:08;;;;;;;;;;;3.10;99.90;;;;;;5054588;28;20342;-75
2021/12/20 08:54:34;;;;;;;;;;;3.20;99.90;;;;;;5053329;28;19904;-74
2021/12/20 08:56:59;;;;;;;;;;;3.10;99.90;;;;;;5053308;28;20432;-74
2021/12/20 08:59:25;;;;;;;;;;;3.30;99.90;;;;;;5052977;28;19905;-75
2021/12/20 09:01:51;;;;;;;;;;;3.40;99.90;;;;;;5054040;28;19904;-74
2021/12/20 09:04:17;;;;;;;;;;;3.40;99.90;;;;;;5054082;28;19912;-74
2021/12/20 09:06:43;;;;;;;;;;;3.50;99.90;;;;;;5054069;28;19970;-74
2021/12/20 09:09:12;;;;;;;;;;;3.50;99.90;;;;;;5054474;28;20330;-74
2021/12/20 09:11:38;;;;;;;;;;;3.30;99.90;;;;;;5053662;28;19909;-74
2021/12/20 09:14:04;;;;;;;;;;;3.10;99.90;;;;;;5040666;28;19909;-74
2021/12/20 09:16:30;;;;;;;;;;;3.20;99.90;;;;;;5053865;28;19946;-74
2021/12/20 09:18:56;;;;;;;;;;;3.30;99.90;;;;;;5053189;28;20000;-74
2021/12/20 09:21:21;;;;;;;;;;;3.30;99.90;;;;;;5054019;28;19904;-75
2021/12/20 09:23:47;;;;;;;;;;;3.20;99.90;;;;;;5052760;28;20038;-73
2021/12/20 09:26:12;;;;;;;;;;;3.20;99.90;;;;;;5052433;28;19912;-74
2021/12/20 09:28:38;;;;;;;;;;;3.20;99.90;;;;;;5054150;28;19904;-75
2021/12/20 09:31:05;;;;;;;;;;;3.20;99.90;;;;;;5053769;28;19911;-74
2021/12/20 09:33:31;;;;;;;;;;;3.20;99.90;;;;;;5053534;28;19967;-75
2021/12/20 09:35:57;;;;;;;;;;;3.30;99.90;;;;;;5053820;28;19951;-75
2021/12/20 09:38:23;;;;;;;;;;;3.20;99.90;;;;;;5053892;28;20417;-74
2021/12/20 09:43:52;;;;;;;;;;;3.50;99.90;;;;;;5053715;28;20265;-75
2021/12/20 09:46:18;;;;;;;;;;;3.60;99.90;;;;;;5052196;28;19905;-75
2021/12/20 09:48:47;;;;;;;;;;;3.50;99.90;;;;;;5053594;28;19951;-75
2021/12/20 09:51:13;;;;;;;;;;;3.40;99.90;;;;;;5053432;28;19905;-75
2021/12/20 09:53:40;;;;;;;;;;;3.30;99.90;;;;;;5053295;28;19909;-74
2021/12/20 09:56:06;;;;;;;;;;;3.30;99.90;;;;;;5035283;28;19912;-75
2021/12/20 09:58:34;;;;;;;;;;;3.50;99.90;;;;;;5053418;28;19911;-75
2021/12/20 10:01:01;;;;;;;;;;;3.70;99.90;;;;;;5053358;28;20410;-74
2021/12/20 10:03:26;;;;;;;;;;;3.80;99.90;;;;;;5053276;28;19965;-75
2021/12/20 10:05:56;;;;;;;;;;;3.80;99.90;;;;;;5053277;28;19979;-75
2021/12/20 10:08:31;;;;;;;;;;;3.80;99.90;;;;;;5054041;28;20039;-74
2021/12/20 10:10:58;;;;;;;;;;;3.80;99.90;;;;;;5051792;28;20364;-75
2021/12/20 10:13:26;;;;;;;;;;;3.90;99.90;;;;;;5053329;28;20012;-75
2021/12/20 10:15:53;;;;;;;;;;;4.00;99.90;;;;;;5052868;28;20388;-75
2021/12/20 10:18:18;;;;;;;;;;;3.80;99.90;;;;;;5053275;28;20329;-75
2021/12/20 10:20:49;;;;;;;;;;;3.90;99.90;;;;;;5052785;28;19912;-75
2021/12/20 10:23:18;;;;;;;;;;;3.90;99.90;;;;;;5051879;28;19915;-75
2021/12/20 10:25:48;;;;;;;;;;;4.00;99.90;;;;;;5052688;28;19904;-75
2021/12/20 10:28:15;;;;;;;;;;;3.90;99.90;;;;;;5052814;28;19904;-74
2021/12/20 10:30:42;;;;;;;;;;;4.00;99.90;;;;;;5052626;28;19915;-75
2021/12/20 10:33:09;;;;;;;;;;;4.00;99.90;;;;;;5051027;28;20014;-74
2021/12/20 10:35:37;;;;;;;;;;;4.10;99.90;;;;;;5051305;28;19955;-75
2021/12/20 10:38:04;;;;;;;;;;;4.00;99.90;;;;;;5051054;28;19936;-75
2021/12/20 10:40:30;;;;;;;;;;;3.80;99.90;;;;;;5052839;28;20348;-74
2021/12/20 10:42:57;;;;;;;;;;;3.60;99.90;;;;;;5034577;28;19950;-74
2021/12/20 10:45:24;;;;;;;;;;;3.60;99.90;;;;;;5052413;28;19999;-74
2021/12/20 10:47:50;;;;;;;;;;;3.80;99.90;;;;;;5052312;28;19970;-75
2021/12/20 10:50:19;;;;;;;;;;;4.10;99.90;;;;;;5051371;28;19911;-75
2021/12/20 10:52:45;;;;;;;;;;;4.20;99.90;;;;;;5051034;28;19909;-75
2021/12/20 10:55:11;;;;;;;;;;;4.10;99.90;;;;;;5052373;28;19978;-75
2021/12/20 10:57:37;;;;;;;;;;;4.00;99.90;;;;;;5052285;28;19908;-75
2021/12/20 11:00:19;;;;;;;;;;;4.00;99.90;;;;;;5050898;28;20042;-75
2021/12/20 11:03:18;;;;;;;;;;;4.20;99.90;;;;;;5051828;28;19904;-75
2021/12/20 11:11:26;;;;;;;;;;;4.40;99.90;;;;;;5052119;28;19943;-75
2021/12/20 11:13:52;;;;;;;;;;;4.40;99.90;;;;;;5050722;28;19990;-74
2021/12/20 11:16:27;;;;;;;;;;;4.50;99.90;;;;;;5051918;28;19987;-75
2021/12/20 11:19:11;;;;;;;;;;;4.30;99.90;;;;;;5052706;28;19911;-75
2021/12/20 11:21:56;;;;;;;;;;;4.40;99.90;;;;;;5050811;28;19912;-75
2021/12/20 11:24:23;;;;;;;;;;;4.30;99.90;;;;;;5050718;28;19932;-74
2021/12/20 11:26:49;;;;;;;;;;;4.40;99.90;;;;;;5050593;28;19905;-74
2021/12/20 11:29:16;;;;;;;;;;;4.50;99.90;;;;;;5052040;28;20275;-75
2021/12/20 11:31:41;;;;;;;;;;;4.40;99.90;;;;;;5050680;28;19905;-75
2021/12/20 11:34:07;;;;;;;;;;;4.40;99.90;;;;;;5051697;28;19908;-75
2021/12/20 11:36:33;;;;;;;;;;;4.40;99.90;;;;;;5050360;28;19970;-74
2021/12/20 11:38:59;;;;;;;;;;;4.40;99.90;;;;;;5052085;28;19931;-75
2021/12/20 11:41:26;;;;;;;;;;;4.60;99.90;;;;;;5051932;28;20280;-75
2021/12/20 11:43:52;;;;;;;;;;;4.60;99.90;;;;;;5055677;28;20310;-75
2021/12/20 11:46:19;;;;;;;;;;;4.70;99.90;;;;;;5055744;28;19944;-75
2021/12/20 11:48:44;;;;;;;;;;;4.50;99.90;;;;;;5054742;28;19905;-75
2021/12/20 11:51:10;;;;;;;;;;;4.50;99.90;;;;;;5055950;28;20358;-74
2021/12/20 11:53:36;;;;;;;;;;;4.50;99.90;;;;;;5055774;28;19908;-75
2021/12/20 11:56:03;;;;;;;;;;;4.20;99.90;;;;;;5037476;28;19951;-74
2021/12/20 11:58:30;;;;;;;;;;;4.10;99.90;;;;;;5055674;28;19974;-75
2021/12/20 12:00:57;;;;;;;;;;;4.30;99.90;;;;;;5055575;28;19904;-75
2021/12/20 12:03:26;;;;;;;;;;;4.20;99.90;;;;;;5054318;28;19905;-75
2021/12/20 12:05:59;;;;;;;;;;;4.20;99.90;;;;;;5054079;28;19968;-75
2021/12/20 12:08:30;;;;;;;;;;;4.20;99.90;;;;;;5037368;28;19904;-75
2021/12/20 12:10:59;;;;;;;;;;;4.30;99.90;;;;;;5055150;28;20058;-74
2021/12/20 12:13:27;;;;;;;;;;;4.50;99.90;;;;;;5053826;28;20003;-75
2021/12/20 12:15:59;;;;;;;;;;;4.50;99.90;;;;;;5053597;28;19913;-74
2021/12/20 12:18:45;;;;;;;;;;;4.50;99.90;;;;;;5054287;28;19909;-75
2021/12/20 12:21:29;;;;;;;;;;;4.50;99.90;;;;;;5055401;28;19908;-75
2021/12/20 12:23:54;;;;;;;;;;;4.20;99.90;;;;;;5055276;28;19954;-75
2021/12/20 12:26:30;;;;;;;;;;;4.20;99.90;;;;;;5053885;28;19991;-74
2021/12/20 12:28:56;;;;;;;;;;;4.30;99.90;;;;;;5053878;28;19912;-75
2021/12/20 12:31:23;;;;;;;;;;;4.30;99.90;;;;;;5053760;28;19928;-75
2021/12/20 12:34:04;;;;;;;;;;;4.30;99.90;;;;;;5054683;28;19909;-74
2021/12/20 12:36:32;;;;;;;;;;;4.20;99.90;;;;;;5055088;28;19904;-75
2021/12/20 12:39:00;;;;;;;;;;;4.30;99.90;;;;;;5053705;28;20283;-75
2021/12/20 12:41:27;;;;;;;;;;;4.40;99.90;;;;;;5053723;28;19905;-75
2021/12/20 12:43:58;;;;;;;;;;;4.60;99.90;;;;;;5053650;28;20371;-75
2021/12/20 12:46:41;;;;;;;;;;;4.50;99.90;;;;;;5054735;28;19905;-75
2021/12/20 12:49:21;;;;;;;;;;;4.70;99.90;;;;;;5054893;28;19904;-75
2021/12/20 12:51:59;;;;;;;;;;;4.90;99.90;;;;;;5054627;28;19905;-75
2021/12/20 12:54:41;;;;;;;;;;;5.10;99.90;;;;;;5052372;28;19908;-75
2021/12/20 12:57:07;;;;;;;;;;;4.90;99.90;;;;;;5054419;28;19955;-75
2021/12/20 12:59:33;;;;;;;;;;;4.70;99.90;;;;;;5054681;28;19951;-75
2021/12/20 13:02:07;;;;;;;;;;;4.60;99.90;;;;;;5053381;28;19931;-75
2021/12/20 13:04:43;;;;;;;;;;;4.70;99.90;;;;;;5053424;28;19905;-75
2021/12/20 13:07:09;;;;;;;;;;;4.70;99.90;;;;;;5053328;28;19944;-75
2021/12/20 13:09:42;;;;;;;;;;;4.90;99.90;;;;;;5053190;28;20371;-75
2021/12/20 13:12:18;;;;;;;;;;;5.00;99.90;;;;;;5054350;28;19908;-75
2021/12/20 13:14:51;;;;;;;;;;;5.60;99.90;;;;;;5053366;28;20053;-75
2021/12/20 13:17:30;;;;;;;;;;;6.40;99.90;;;;;;5060975;22;19970;-91
2021/12/20 13:22:53;;;;;;;;;;;7.90;99.90;;;;;;5034047;28;20015;-92
2021/12/20 13:25:31;;;;;;;;;;;8.40;98.30;;;;;;5017623;28;20298;-92
2021/12/20 13:27:57;;;;;;;;;;;8.90;96.90;;;;;;5013974;28;20359;-92
2021/12/20 13:30:36;;;;;;;;;;;8.60;93.70;;;;;;5014129;28;19913;-92
2021/12/20 13:33:01;;;;;;;;;;;7.80;93.00;;;;;;4997623;28;19913;-93
2021/12/20 13:35:28;;;;;;;;;;;7.50;95.70;;;;;;5014073;28;19960;-92
2021/12/20 13:38:13;;;;;;;;;;;6.90;96.30;;;;;;4997439;28;19955;-91
2021/12/20 13:40:42;;;;;;;;;;;6.30;98.30;;;;;;5014730;28;19919;-91
2021/12/20 13:43:11;;;;;;;;;;;5.90;99.30;;;;;;5013939;28;19914;-91
2021/12/20 13:45:37;;;;;;;;;;;5.70;99.90;;;;;;5013934;28;19906;-92
2021/12/20 13:48:07;;;;;;;;;;;5.50;99.90;;;;;;5015317;28;20298;-92
2021/12/20 13:50:33;;;;;;;;;;;5.40;99.90;;;;;;5014489;28;19912;-88
2021/12/20 13:52:58;;;;;;;;;;;5.40;99.90;;;;;;5014649;28;19914;-88
2021/12/20 13:55:24;;;;;;;;;;;5.30;99.90;;;;;;5014175;28;19937;-89
2021/12/20 13:57:50;;;;;;;;;;;5.20;99.90;;;;;;5013861;28;19905;-88
2021/12/20 14:00:16;;;;;;;;;;;5.20;99.90;;;;;;5013334;28;19956;-89
2021/12/20 14:02:42;;;;;;;;;;;5.40;99.90;;;;;;5013237;28;19905;-90
2021/12/20 14:05:14;;;;;;;;;;;5.40;99.90;;;;;;4997311;28;19948;-91
2021/12/20 14:07:43;;;;;;;;;;;5.30;99.90;;;;;;5013588;28;19906;-91
2021/12/20 14:10:11;;;;;;;;;;;5.30;99.90;;;;;;5013619;28;19906;-92
2021/12/20 14:12:38;;;;;;;;;;;5.30;99.90;;;;;;5012867;28;19959;-92
2021/12/20 14:15:06;;;;;;;;;;;5.10;99.90;;;;;;5013535;28;19910;-92
2021/12/20 14:17:51;;;;;;;;;;;5.00;99.90;;;;;;5012779;28;19921;-91
2021/12/20 14:20:16;;;;;;;;;;;5.10;99.90;;;;;;5013026;28;20355;-91
2021/12/20 14:22:49;;;;;;;;;;;4.90;99.90;;;;;;4996998;28;19956;-93
2021/12/20 14:25:15;;;;;;;;;;;5.00;99.90;;;;;;5013616;28;19905;-91
2021/12/20 14:27:40;;;;;;;;;;;4.90;99.90;;;;;;4998053;28;19905;-91
2021/12/20 14:30:20;;;;;;;;;;;4.90;99.90;;;;;;5014431;28;19905;-91
2021/12/20 14:32:48;;;;;;;;;;;4.70;99.90;;;;;;5013388;28;20331;-91
2021/12/20 14:35:28;;;;;;;;;;;4.50;99.90;;;;;;5012377;28;19909;-92
2021/12/20 14:37:54;;;;;;;;;;;4.20;99.90;;;;;;5013009;28;19952;-91
2021/12/20 14:40:38;;;;;;;;;;;4.10;99.90;;;;;;5014673;28;19905;-91
2021/12/20 14:43:06;;;;;;;;;;;4.00;99.90;;;;;;5015407;28;19909;-92
2021/12/20 14:45:32;;;;;;;;;;;4.00;99.90;;;;;;5013235;28;19905;-92
2021/12/20 14:48:14;;;;;;;;;;;4.00;99.90;;;;;;5013696;28;20017;-91
2021/12/20 14:50:43;;;;;;;;;;;4.00;99.90;;;;;;5013757;28;19913;-91
2021/12/20 14:53:13;;;;;;;;;;;4.20;99.90;;;;;;4997436;28;19939;-92
2021/12/20 14:55:39;;;;;;;;;;;4.10;99.90;;;;;;5013523;28;19909;-92
2021/12/20 14:58:04;;;;;;;;;;;4.20;99.90;;;;;;5013162;28;19905;-91